sensor_id;sensor_type;location;lat;lon;timestamp;temperature;humidity
20398;DHT22;10358;49.590;11.030;2023-08-12T00:01:20;18.40;99.90
20398;DHT22;10358;49.590;11.030;2023-08-12T00:03:47;18.30;99.90
20398;DHT22;10358;49.590;11.030;2023-08-12T00:06:13;18.30;99.90
20398;DHT22;10358;49.590;11.030;2023-08-12T00:08:39;18.30;99.90
20398;DHT22;10358;49.590;11.030;2023-08-12T00:11:04;18.30;99.90
20398;DHT22;10358;49.590;11.030;2023-08-12T00:13:30;18.30;99.90
20398;DHT22;10358;49.590;11.030;2023-08-12T00:15:55;18.30;99.90
20398;DHT22;10358;49.590;11.030;2023-08-12T00:18:22;18.30;99.90
20398;DHT22;10358;49.590;11.030;2023-08-12T00:20:47;18.20;99.90
20398;DHT22;10358;49.590;11.030;2023-08-12T00:23:13;18.20;99.90
20398;DHT22;10358;49.590;11.030;2023-08-12T00:25:39;18.20;99.90
20398;DHT22;10358;49.590;11.030;2023-08-12T00:28:04;18.20;99.90
20398;DHT22;10358;49.590;11.030;2023-08-12T00:30:30;18.10;99.90
20398;DHT22;10358;49.590;11.030;2023-08-12T00:32:56;18.00;99.90
20398;DHT22;10358;49.590;11.030;2023-08-12T00:35:21;18.10;99.90
20398;DHT22;10358;49.590;11.030;2023-08-12T00:37:47;18.00;99.90
20398;DHT22;10358;49.590;11.030;2023-08-12T00:40:13;18.00;99.90
20398;DHT22;10358;49.590;11.030;2023-08-12T00:42:39;18.00;99.90
20398;DHT22;10358;49.590;11.030;2023-08-12T00:45:09;18.00;99.90
20398;DHT22;10358;49.590;11.030;2023-08-12T00:47:35;18.00;99.90
20398;DHT22;10358;49.590;11.030;2023-08-12T00:50:02;18.00;99.90
20398;DHT22;10358;49.590;11.030;2023-08-12T00:52:28;17.90;99.90
20398;DHT22;10358;49.590;11.030;2023-08-12T00:54:53;17.90;99.90
20398;DHT22;10358;49.590;11.030;2023-08-12T00:57:19;17.90;99.90
20398;DHT22;10358;49.590;11.030;2023-08-12T00:59:45;17.80;99.90
20398;DHT22;10358;49.590;11.030;2023-08-12T01:02:11;17.80;99.90
20398;DHT22;10358;49.590;11.030;2023-08-12T01:04:37;17.80;99.90
20398;DHT22;10358;49.590;11.030;2023-08-12T01:07:03;17.80;99.90
20398;DHT22;10358;49.590;11.030;2023-08-12T01:09:29;17.80;99.90
20398;DHT22;10358;49.590;11.030;2023-08-12T01:12:06;17.70;99.90
20398;DHT22;10358;49.590;11.030;2023-08-12T01:17:38;17.60;99.90
20398;DHT22;10358;49.590;11.030;2023-08-12T01:20:07;17.60;99.90
20398;DHT22;10358;49.590;11.030;2023-08-12T01:22:38;17.60;99.90
20398;DHT22;10358;49.590;11.030;2023-08-12T01:25:06;17.50;99.90
20398;DHT22;10358;49.590;11.030;2023-08-12T01:27:33;17.50;99.90
20398;DHT22;10358;49.590;11.030;2023-08-12T01:29:59;17.50;99.90
20398;DHT22;10358;49.590;11.030;2023-08-12T01:32:43;17.50;99.90
20398;DHT22;10358;49.590;11.030;2023-08-12T01:35:18;17.40;99.90
20398;DHT22;10358;49.590;11.030;2023-08-12T01:37:46;17.50;99.90
20398;DHT22;10358;49.590;11.030;2023-08-12T01:40:14;17.40;99.90
20398;DHT22;10358;49.590;11.030;2023-08-12T01:42:42;17.30;99.90
20398;DHT22;10358;49.590;11.030;2023-08-12T01:45:08;17.30;99.90
20398;DHT22;10358;49.590;11.030;2023-08-12T01:47:33;17.20;99.90
20398;DHT22;10358;49.590;11.030;2023-08-12T01:49:59;17.20;99.90
20398;DHT22;10358;49.590;11.030;2023-08-12T01:52:25;17.20;99.90
20398;DHT22;10358;49.590;11.030;2023-08-12T01:54:51;17.20;99.90
20398;DHT22;10358;49.590;11.030;2023-08-12T01:57:17;17.20;99.90
20398;DHT22;10358;49.590;11.030;2023-08-12T01:59:42;17.20;99.90
20398;DHT22;10358;49.590;11.030;2023-08-12T02:02:11;17.20;99.90
20398;DHT22;10358;49.590;11.030;2023-08-12T02:04:37;17.20;99.90
20398;DHT22;10358;49.590;11.030;2023-08-12T02:07:03;17.10;99.90
20398;DHT22;10358;49.590;11.030;2023-08-12T02:09:29;17.10;99.90
20398;DHT22;10358;49.590;11.030;2023-08-12T02:11:56;17.00;99.90
20398;DHT22;10358;49.590;11.030;2023-08-12T02:14:21;17.00;99.90
20398;DHT22;10358;49.590;11.030;2023-08-12T02:16:47;17.00;99.90
20398;DHT22;10358;49.590;11.030;2023-08-12T02:19:13;16.90;99.90
20398;DHT22;10358;49.590;11.030;2023-08-12T02:21:38;16.80;99.90
20398;DHT22;10358;49.590;11.030;2023-08-12T02:24:04;16.80;99.90
20398;DHT22;10358;49.590;11.030;2023-08-12T02:26:30;16.70;99.90
20398;DHT22;10358;49.590;11.030;2023-08-12T02:28:56;16.70;99.90
20398;DHT22;10358;49.590;11.030;2023-08-12T02:31:21;16.80;99.90
20398;DHT22;10358;49.590;11.030;2023-08-12T02:36:14;16.90;99.90
20398;DHT22;10358;49.590;11.030;2023-08-12T02:38:40;16.90;99.90
20398;DHT22;10358;49.590;11.030;2023-08-12T02:41:06;16.90;99.90
20398;DHT22;10358;49.590;11.030;2023-08-12T02:43:31;16.90;99.90
20398;DHT22;10358;49.590;11.030;2023-08-12T02:45:57;16.90;99.90
20398;DHT22;10358;49.590;11.030;2023-08-12T02:48:22;16.80;99.90
20398;DHT22;10358;49.590;11.030;2023-08-12T02:50:48;16.80;99.90
20398;DHT22;10358;49.590;11.030;2023-08-12T02:53:15;16.80;99.90
20398;DHT22;10358;49.590;11.030;2023-08-12T02:55:40;16.70;99.90
20398;DHT22;10358;49.590;11.030;2023-08-12T02:58:06;16.70;99.90
20398;DHT22;10358;49.590;11.030;2023-08-12T03:00:31;16.70;99.90
20398;DHT22;10358;49.590;11.030;2023-08-12T03:02:57;16.70;99.90
20398;DHT22;10358;49.590;11.030;2023-08-12T03:05:22;16.70;99.90
20398;DHT22;10358;49.590;11.030;2023-08-12T03:07:49;16.70;99.90
20398;DHT22;10358;49.590;11.030;2023-08-12T03:10:14;16.70;99.90
20398;DHT22;10358;49.590;11.030;2023-08-12T03:12:40;16.60;99.90
20398;DHT22;10358;49.590;11.030;2023-08-12T03:15:10;16.50;99.90
20398;DHT22;10358;49.590;11.030;2023-08-12T03:17:36;16.50;99.90
20398;DHT22;10358;49.590;11.030;2023-08-12T03:20:04;16.50;99.90
20398;DHT22;10358;49.590;11.030;2023-08-12T03:22:31;16.50;99.90
20398;DHT22;10358;49.590;11.030;2023-08-12T03:24:56;16.60;99.90
20398;DHT22;10358;49.590;11.030;2023-08-12T03:27:22;16.50;99.90
20398;DHT22;10358;49.590;11.030;2023-08-12T03:29:47;16.60;99.90
20398;DHT22;10358;49.590;11.030;2023-08-12T03:32:13;16.50;99.90
20398;DHT22;10358;49.590;11.030;2023-08-12T03:34:39;16.50;99.90
20398;DHT22;10358;49.590;11.030;2023-08-12T03:37:04;16.60;99.90
20398;DHT22;10358;49.590;11.030;2023-08-12T03:39:30;16.50;99.90
20398;DHT22;10358;49.590;11.030;2023-08-12T03:41:56;16.50;99.90
20398;DHT22;10358;49.590;11.030;2023-08-12T03:44:21;16.40;99.90
20398;DHT22;10358;49.590;11.030;2023-08-12T03:46:47;16.30;99.90
20398;DHT22;10358;49.590;11.030;2023-08-12T03:49:12;16.40;99.90
20398;DHT22;10358;49.590;11.030;2023-08-12T03:51:38;16.40;99.90
20398;DHT22;10358;49.590;11.030;2023-08-12T03:54:03;16.40;99.90
20398;DHT22;10358;49.590;11.030;2023-08-12T03:56:29;16.50;99.90
20398;DHT22;10358;49.590;11.030;2023-08-12T03:58:55;16.50;99.90
20398;DHT22;10358;49.590;11.030;2023-08-12T04:01:21;16.60;99.90
20398;DHT22;10358;49.590;11.030;2023-08-12T04:03:46;16.60;99.90
20398;DHT22;10358;49.590;11.030;2023-08-12T04:06:12;16.50;99.90
20398;DHT22;10358;49.590;11.030;2023-08-12T04:08:38;16.50;99.90
20398;DHT22;10358;49.590;11.030;2023-08-12T04:11:04;16.50;99.90
20398;DHT22;10358;49.590;11.030;2023-08-12T04:13:29;16.50;99.90
20398;DHT22;10358;49.590;11.030;2023-08-12T04:15:55;16.50;99.90
20398;DHT22;10358;49.590;11.030;2023-08-12T04:18:21;16.60;99.90
20398;DHT22;10358;49.590;11.030;2023-08-12T04:20:48;16.60;99.90
20398;DHT22;10358;49.590;11.030;2023-08-12T04:23:14;16.60;99.90
20398;DHT22;10358;49.590;11.030;2023-08-12T04:25:39;16.60;99.90
20398;DHT22;10358;49.590;11.030;2023-08-12T04:28:05;16.60;99.90
20398;DHT22;10358;49.590;11.030;2023-08-12T04:30:31;16.70;99.90
20398;DHT22;10358;49.590;11.030;2023-08-12T04:32:56;16.70;99.90
20398;DHT22;10358;49.590;11.030;2023-08-12T04:35:22;16.70;99.90
20398;DHT22;10358;49.590;11.030;2023-08-12T04:37:47;16.60;99.90
20398;DHT22;10358;49.590;11.030;2023-08-12T04:40:13;16.70;99.90
20398;DHT22;10358;49.590;11.030;2023-08-12T04:42:38;16.70;99.90
20398;DHT22;10358;49.590;11.030;2023-08-12T04:45:04;16.70;99.90
20398;DHT22;10358;49.590;11.030;2023-08-12T04:47:30;16.70;99.90
20398;DHT22;10358;49.590;11.030;2023-08-12T04:49:55;16.70;99.90
20398;DHT22;10358;49.590;11.030;2023-08-12T04:52:21;16.70;99.90
20398;DHT22;10358;49.590;11.030;2023-08-12T04:54:47;16.70;99.90
20398;DHT22;10358;49.590;11.030;2023-08-12T04:57:12;16.70;99.90
20398;DHT22;10358;49.590;11.030;2023-08-12T04:59:38;16.80;99.90
20398;DHT22;10358;49.590;11.030;2023-08-12T05:02:03;16.80;99.90
20398;DHT22;10358;49.590;11.030;2023-08-12T05:04:29;17.00;99.90
20398;DHT22;10358;49.590;11.030;2023-08-12T05:06:54;17.00;99.90
20398;DHT22;10358;49.590;11.030;2023-08-12T05:09:20;17.20;99.90
20398;DHT22;10358;49.590;11.030;2023-08-12T05:11:45;17.20;99.90
20398;DHT22;10358;49.590;11.030;2023-08-12T05:14:11;17.30;99.90
20398;DHT22;10358;49.590;11.030;2023-08-12T05:16:36;17.40;99.90
20398;DHT22;10358;49.590;11.030;2023-08-12T05:19:02;17.40;99.90
20398;DHT22;10358;49.590;11.030;2023-08-12T05:21:28;17.50;99.90
20398;DHT22;10358;49.590;11.030;2023-08-12T05:23:53;17.60;99.90
20398;DHT22;10358;49.590;11.030;2023-08-12T05:26:19;17.80;99.90
20398;DHT22;10358;49.590;11.030;2023-08-12T05:28:46;17.80;99.90
20398;DHT22;10358;49.590;11.030;2023-08-12T05:31:11;18.00;99.90
20398;DHT22;10358;49.590;11.030;2023-08-12T05:33:37;18.10;99.90
20398;DHT22;10358;49.590;11.030;2023-08-12T05:36:04;18.30;99.90
20398;DHT22;10358;49.590;11.030;2023-08-12T05:38:29;18.30;99.90
20398;DHT22;10358;49.590;11.030;2023-08-12T05:40:55;18.50;99.90
20398;DHT22;10358;49.590;11.030;2023-08-12T05:43:21;18.70;99.90
20398;DHT22;10358;49.590;11.030;2023-08-12T05:45:47;18.80;99.90
20398;DHT22;10358;49.590;11.030;2023-08-12T05:48:13;19.10;99.90
20398;DHT22;10358;49.590;11.030;2023-08-12T05:50:39;19.30;99.90
20398;DHT22;10358;49.590;11.030;2023-08-12T05:53:04;19.50;99.90
20398;DHT22;10358;49.590;11.030;2023-08-12T05:55:30;19.60;99.90
20398;DHT22;10358;49.590;11.030;2023-08-12T05:57:55;19.80;99.90
20398;DHT22;10358;49.590;11.030;2023-08-12T06:00:21;19.90;99.90
20398;DHT22;10358;49.590;11.030;2023-08-12T06:02:46;20.00;99.90
20398;DHT22;10358;49.590;11.030;2023-08-12T06:05:12;20.10;99.90
20398;DHT22;10358;49.590;11.030;2023-08-12T06:07:37;20.10;99.90
20398;DHT22;10358;49.590;11.030;2023-08-12T06:10:04;20.30;99.90
20398;DHT22;10358;49.590;11.030;2023-08-12T06:12:29;20.40;99.90
20398;DHT22;10358;49.590;11.030;2023-08-12T06:14:55;20.40;99.90
20398;DHT22;10358;49.590;11.030;2023-08-12T06:17:20;20.50;99.90
20398;DHT22;10358;49.590;11.030;2023-08-12T06:19:46;20.50;99.90
20398;DHT22;10358;49.590;11.030;2023-08-12T06:22:11;20.60;99.90
20398;DHT22;10358;49.590;11.030;2023-08-12T06:24:37;20.70;99.90
20398;DHT22;10358;49.590;11.030;2023-08-12T06:27:03;20.70;99.90
20398;DHT22;10358;49.590;11.030;2023-08-12T06:29:28;20.80;99.90
20398;DHT22;10358;49.590;11.030;2023-08-12T06:31:54;20.80;99.90
20398;DHT22;10358;49.590;11.030;2023-08-12T06:34:19;20.90;99.90
20398;DHT22;10358;49.590;11.030;2023-08-12T06:36:45;20.90;99.90
20398;DHT22;10358;49.590;11.030;2023-08-12T06:39:11;21.00;99.90
20398;DHT22;10358;49.590;11.030;2023-08-12T06:41:36;21.00;99.90
20398;DHT22;10358;49.590;11.030;2023-08-12T06:44:02;21.10;99.90
20398;DHT22;10358;49.590;11.030;2023-08-12T06:46:29;21.20;99.90
20398;DHT22;10358;49.590;11.030;2023-08-12T06:48:56;21.20;99.90
20398;DHT22;10358;49.590;11.030;2023-08-12T06:51:21;21.30;99.90
20398;DHT22;10358;49.590;11.030;2023-08-12T06:53:47;21.40;99.90
20398;DHT22;10358;49.590;11.030;2023-08-12T06:56:12;21.50;99.90
20398;DHT22;10358;49.590;11.030;2023-08-12T06:58:38;21.60;99.90
20398;DHT22;10358;49.590;11.030;2023-08-12T07:01:04;21.70;99.90
20398;DHT22;10358;49.590;11.030;2023-08-12T07:03:29;21.70;99.90
20398;DHT22;10358;49.590;11.030;2023-08-12T07:05:55;21.80;99.90
20398;DHT22;10358;49.590;11.030;2023-08-12T07:08:20;21.90;99.90
20398;DHT22;10358;49.590;11.030;2023-08-12T07:10:46;21.90;99.90
20398;DHT22;10358;49.590;11.030;2023-08-12T07:13:11;22.00;99.90
20398;DHT22;10358;49.590;11.030;2023-08-12T07:15:37;22.10;99.90
20398;DHT22;10358;49.590;11.030;2023-08-12T07:18:03;22.10;99.90
20398;DHT22;10358;49.590;11.030;2023-08-12T07:20:28;22.20;99.90
20398;DHT22;10358;49.590;11.030;2023-08-12T07:22:54;22.30;99.90
20398;DHT22;10358;49.590;11.030;2023-08-12T07:25:21;22.40;99.90
20398;DHT22;10358;49.590;11.030;2023-08-12T07:27:46;22.50;99.90
20398;DHT22;10358;49.590;11.030;2023-08-12T07:30:12;22.70;99.90
20398;DHT22;10358;49.590;11.030;2023-08-12T07:32:38;22.70;99.90
20398;DHT22;10358;49.590;11.030;2023-08-12T07:35:04;22.90;99.90
20398;DHT22;10358;49.590;11.030;2023-08-12T07:37:31;23.00;99.90
20398;DHT22;10358;49.590;11.030;2023-08-12T07:39:57;23.00;99.90
20398;DHT22;10358;49.590;11.030;2023-08-12T07:42:22;23.10;99.90
20398;DHT22;10358;49.590;11.030;2023-08-12T07:44:48;23.30;99.90
20398;DHT22;10358;49.590;11.030;2023-08-12T07:47:14;23.40;99.90
20398;DHT22;10358;49.590;11.030;2023-08-12T07:49:41;23.50;99.90
20398;DHT22;10358;49.590;11.030;2023-08-12T07:52:06;23.60;99.90
20398;DHT22;10358;49.590;11.030;2023-08-12T07:54:32;23.70;99.90
20398;DHT22;10358;49.590;11.030;2023-08-12T07:56:57;23.80;99.90
20398;DHT22;10358;49.590;11.030;2023-08-12T07:59:23;23.90;99.90
20398;DHT22;10358;49.590;11.030;2023-08-12T08:01:48;23.90;99.90
20398;DHT22;10358;49.590;11.030;2023-08-12T08:04:14;24.00;99.90
20398;DHT22;10358;49.590;11.030;2023-08-12T08:06:39;24.10;99.90
20398;DHT22;10358;49.590;11.030;2023-08-12T08:09:05;24.10;99.90
20398;DHT22;10358;49.590;11.030;2023-08-12T08:11:32;24.30;99.90
20398;DHT22;10358;49.590;11.030;2023-08-12T08:13:59;24.30;99.90
20398;DHT22;10358;49.590;11.030;2023-08-12T08:16:25;24.30;99.90
20398;DHT22;10358;49.590;11.030;2023-08-12T08:18:50;24.40;99.90
20398;DHT22;10358;49.590;11.030;2023-08-12T08:21:16;24.40;99.90
20398;DHT22;10358;49.590;11.030;2023-08-12T08:23:41;24.50;99.90
20398;DHT22;10358;49.590;11.030;2023-08-12T08:26:08;24.60;99.90
20398;DHT22;10358;49.590;11.030;2023-08-12T08:28:33;24.60;99.90
20398;DHT22;10358;49.590;11.030;2023-08-12T08:30:59;24.60;99.90
20398;DHT22;10358;49.590;11.030;2023-08-12T08:33:25;24.80;99.90
20398;DHT22;10358;49.590;11.030;2023-08-12T08:35:51;24.80;99.90
20398;DHT22;10358;49.590;11.030;2023-08-12T08:38:17;25.00;99.90
20398;DHT22;10358;49.590;11.030;2023-08-12T08:40:42;25.10;99.90
20398;DHT22;10358;49.590;11.030;2023-08-12T08:43:08;25.30;99.90
20398;DHT22;10358;49.590;11.030;2023-08-12T08:45:34;25.40;99.90
20398;DHT22;10358;49.590;11.030;2023-08-12T08:48:01;25.40;99.90
20398;DHT22;10358;49.590;11.030;2023-08-12T08:50:29;25.40;99.90
20398;DHT22;10358;49.590;11.030;2023-08-12T08:52:55;25.40;99.90
20398;DHT22;10358;49.590;11.030;2023-08-12T08:55:22;25.50;99.90
20398;DHT22;10358;49.590;11.030;2023-08-12T08:57:48;25.60;99.90
20398;DHT22;10358;49.590;11.030;2023-08-12T09:00:16;25.70;99.90
20398;DHT22;10358;49.590;11.030;2023-08-12T09:02:44;25.70;99.90
20398;DHT22;10358;49.590;11.030;2023-08-12T09:05:10;25.80;99.90
20398;DHT22;10358;49.590;11.030;2023-08-12T09:07:36;25.90;99.90
20398;DHT22;10358;49.590;11.030;2023-08-12T09:10:03;26.00;99.90
20398;DHT22;10358;49.590;11.030;2023-08-12T09:12:29;26.10;99.90
20398;DHT22;10358;49.590;11.030;2023-08-12T09:14:56;26.10;99.90
20398;DHT22;10358;49.590;11.030;2023-08-12T09:17:22;26.20;99.90
20398;DHT22;10358;49.590;11.030;2023-08-12T09:19:47;26.20;99.90
20398;DHT22;10358;49.590;11.030;2023-08-12T09:22:13;26.20;99.90
20398;DHT22;10358;49.590;11.030;2023-08-12T09:24:38;26.10;99.90
20398;DHT22;10358;49.590;11.030;2023-08-12T09:27:04;26.00;99.90
20398;DHT22;10358;49.590;11.030;2023-08-12T09:29:34;25.90;99.90
20398;DHT22;10358;49.590;11.030;2023-08-12T09:34:35;25.90;99.90
20398;DHT22;10358;49.590;11.030;2023-08-12T09:37:01;25.90;99.90
20398;DHT22;10358;49.590;11.030;2023-08-12T09:39:28;26.10;99.90
20398;DHT22;10358;49.590;11.030;2023-08-12T09:41:55;26.10;99.90
20398;DHT22;10358;49.590;11.030;2023-08-12T09:44:21;26.10;99.90
20398;DHT22;10358;49.590;11.030;2023-08-12T09:46:48;26.10;99.90
20398;DHT22;10358;49.590;11.030;2023-08-12T09:49:13;26.20;99.90
20398;DHT22;10358;49.590;11.030;2023-08-12T09:51:39;26.30;99.90
20398;DHT22;10358;49.590;11.030;2023-08-12T09:54:09;26.40;99.90
20398;DHT22;10358;49.590;11.030;2023-08-12T09:56:36;26.60;99.90
20398;DHT22;10358;49.590;11.030;2023-08-12T09:59:08;26.70;99.90
20398;DHT22;10358;49.590;11.030;2023-08-12T10:01:34;26.80;99.90
20398;DHT22;10358;49.590;11.030;2023-08-12T10:04:00;27.00;99.90
20398;DHT22;10358;49.590;11.030;2023-08-12T10:06:28;27.10;99.90
20398;DHT22;10358;49.590;11.030;2023-08-12T10:08:54;27.20;99.90
20398;DHT22;10358;49.590;11.030;2023-08-12T10:11:20;27.30;99.90
20398;DHT22;10358;49.590;11.030;2023-08-12T10:13:47;27.40;99.90
20398;DHT22;10358;49.590;11.030;2023-08-12T10:16:13;27.40;99.90
20398;DHT22;10358;49.590;11.030;2023-08-12T10:18:39;27.40;99.90
20398;DHT22;10358;49.590;11.030;2023-08-12T10:21:09;27.30;99.90
20398;DHT22;10358;49.590;11.030;2023-08-12T10:23:35;27.30;99.90
20398;DHT22;10358;49.590;11.030;2023-08-12T10:26:01;27.30;99.90
20398;DHT22;10358;49.590;11.030;2023-08-12T10:28:29;27.30;99.90
20398;DHT22;10358;49.590;11.030;2023-08-12T10:30:57;27.40;99.90
20398;DHT22;10358;49.590;11.030;2023-08-12T10:33:23;27.60;99.90
20398;DHT22;10358;49.590;11.030;2023-08-12T10:35:49;27.70;99.90
20398;DHT22;10358;49.590;11.030;2023-08-12T10:38:19;27.70;99.90
20398;DHT22;10358;49.590;11.030;2023-08-12T10:40:45;27.70;99.90
20398;DHT22;10358;49.590;11.030;2023-08-12T10:43:14;27.70;99.90
20398;DHT22;10358;49.590;11.030;2023-08-12T10:45:52;27.80;99.90
20398;DHT22;10358;49.590;11.030;2023-08-12T10:48:22;27.90;99.90
20398;DHT22;10358;49.590;11.030;2023-08-12T10:50:59;27.90;99.90
20398;DHT22;10358;49.590;11.030;2023-08-12T10:53:25;28.00;99.90
20398;DHT22;10358;49.590;11.030;2023-08-12T10:56:04;28.10;99.90
20398;DHT22;10358;49.590;11.030;2023-08-12T10:58:48;28.20;99.90
20398;DHT22;10358;49.590;11.030;2023-08-12T11:01:17;28.20;99.90
20398;DHT22;10358;49.590;11.030;2023-08-12T11:03:44;28.20;99.90
20398;DHT22;10358;49.590;11.030;2023-08-12T11:06:10;28.30;99.90
20398;DHT22;10358;49.590;11.030;2023-08-12T11:08:36;28.30;99.90
20398;DHT22;10358;49.590;11.030;2023-08-12T11:11:03;28.40;99.90
20398;DHT22;10358;49.590;11.030;2023-08-12T11:13:56;28.40;99.90
20398;DHT22;10358;49.590;11.030;2023-08-12T11:16:34;28.50;99.90
20398;DHT22;10358;49.590;11.030;2023-08-12T11:19:00;28.60;99.90
20398;DHT22;10358;49.590;11.030;2023-08-12T11:21:26;28.50;99.90
20398;DHT22;10358;49.590;11.030;2023-08-12T11:23:54;28.50;99.90
20398;DHT22;10358;49.590;11.030;2023-08-12T11:26:23;28.60;99.90
20398;DHT22;10358;49.590;11.030;2023-08-12T11:28:49;28.70;99.90
20398;DHT22;10358;49.590;11.030;2023-08-12T11:31:15;28.70;99.90
20398;DHT22;10358;49.590;11.030;2023-08-12T11:33:41;28.70;99.90
20398;DHT22;10358;49.590;11.030;2023-08-12T11:36:07;28.80;99.90
20398;DHT22;10358;49.590;11.030;2023-08-12T11:38:33;28.90;99.90
20398;DHT22;10358;49.590;11.030;2023-08-12T11:41:00;28.90;99.90
20398;DHT22;10358;49.590;11.030;2023-08-12T11:43:28;28.90;99.90
20398;DHT22;10358;49.590;11.030;2023-08-12T11:45:55;28.90;99.90
20398;DHT22;10358;49.590;11.030;2023-08-12T11:48:21;28.90;99.90
20398;DHT22;10358;49.590;11.030;2023-08-12T11:50:47;28.90;99.90
20398;DHT22;10358;49.590;11.030;2023-08-12T11:53:12;28.90;99.90
20398;DHT22;10358;49.590;11.030;2023-08-12T11:55:38;28.90;99.90
20398;DHT22;10358;49.590;11.030;2023-08-12T11:58:05;28.80;99.90
20398;DHT22;10358;49.590;11.030;2023-08-12T12:00:31;28.70;99.90
20398;DHT22;10358;49.590;11.030;2023-08-12T12:02:58;28.70;99.90
20398;DHT22;10358;49.590;11.030;2023-08-12T12:05:28;28.70;99.90
20398;DHT22;10358;49.590;11.030;2023-08-12T12:07:55;28.70;99.90
20398;DHT22;10358;49.590;11.030;2023-08-12T12:10:27;28.70;99.90
20398;DHT22;10358;49.590;11.030;2023-08-12T12:12:54;28.70;99.90
20398;DHT22;10358;49.590;11.030;2023-08-12T12:15:20;28.80;99.90
20398;DHT22;10358;49.590;11.030;2023-08-12T12:17:47;28.80;99.90
20398;DHT22;10358;49.590;11.030;2023-08-12T12:20:13;28.90;99.90
20398;DHT22;10358;49.590;11.030;2023-08-12T12:22:41;29.00;99.90
20398;DHT22;10358;49.590;11.030;2023-08-12T12:25:12;29.30;99.90
20398;DHT22;10358;49.590;11.030;2023-08-12T12:27:39;29.50;99.90
20398;DHT22;10358;49.590;11.030;2023-08-12T12:30:08;29.60;99.90
20398;DHT22;10358;49.590;11.030;2023-08-12T12:32:34;29.80;99.90
20398;DHT22;10358;49.590;11.030;2023-08-12T12:35:00;29.90;99.90
20398;DHT22;10358;49.590;11.030;2023-08-12T12:37:27;30.00;99.90
20398;DHT22;10358;49.590;11.030;2023-08-12T12:39:52;30.10;99.90
20398;DHT22;10358;49.590;11.030;2023-08-12T12:42:18;30.20;99.90
20398;DHT22;10358;49.590;11.030;2023-08-12T12:44:43;30.30;99.90
20398;DHT22;10358;49.590;11.030;2023-08-12T12:47:09;30.50;99.90
20398;DHT22;10358;49.590;11.030;2023-08-12T12:49:40;30.60;99.90
20398;DHT22;10358;49.590;11.030;2023-08-12T12:52:09;30.80;99.60
20398;DHT22;10358;49.590;11.030;2023-08-12T12:54:34;31.00;99.00
20398;DHT22;10358;49.590;11.030;2023-08-12T12:57:00;31.30;98.20
20398;DHT22;10358;49.590;11.030;2023-08-12T12:59:27;31.70;97.50
20398;DHT22;10358;49.590;11.030;2023-08-12T13:01:52;32.00;97.00
20398;DHT22;10358;49.590;11.030;2023-08-12T13:04:18;32.30;96.40
20398;DHT22;10358;49.590;11.030;2023-08-12T13:06:44;32.40;95.60
20398;DHT22;10358;49.590;11.030;2023-08-12T13:09:10;32.30;94.70
20398;DHT22;10358;49.590;11.030;2023-08-12T13:11:35;32.20;94.50
20398;DHT22;10358;49.590;11.030;2023-08-12T13:14:02;32.20;94.40
20398;DHT22;10358;49.590;11.030;2023-08-12T13:16:28;32.20;94.00
20398;DHT22;10358;49.590;11.030;2023-08-12T13:18:53;32.00;93.50
20398;DHT22;10358;49.590;11.030;2023-08-12T13:21:19;32.00;93.70
20398;DHT22;10358;49.590;11.030;2023-08-12T13:23:44;32.00;93.60
20398;DHT22;10358;49.590;11.030;2023-08-12T13:26:10;32.20;93.50
20398;DHT22;10358;49.590;11.030;2023-08-12T13:28:36;32.40;93.10
20398;DHT22;10358;49.590;11.030;2023-08-12T13:31:02;32.60;92.70
20398;DHT22;10358;49.590;11.030;2023-08-12T13:33:27;32.80;92.30
20398;DHT22;10358;49.590;11.030;2023-08-12T13:35:53;32.70;91.60
20398;DHT22;10358;49.590;11.030;2023-08-12T13:38:19;32.50;90.60
20398;DHT22;10358;49.590;11.030;2023-08-12T13:40:44;32.10;90.00
20398;DHT22;10358;49.590;11.030;2023-08-12T13:43:10;31.70;89.90
20398;DHT22;10358;49.590;11.030;2023-08-12T13:45:36;31.40;90.20
20398;DHT22;10358;49.590;11.030;2023-08-12T13:48:01;31.10;90.70
20398;DHT22;10358;49.590;11.030;2023-08-12T13:50:27;30.80;91.10
20398;DHT22;10358;49.590;11.030;2023-08-12T13:52:53;30.60;91.70
20398;DHT22;10358;49.590;11.030;2023-08-12T13:55:18;30.30;92.70
20398;DHT22;10358;49.590;11.030;2023-08-12T13:57:44;30.10;94.20
20398;DHT22;10358;49.590;11.030;2023-08-12T14:00:10;29.10;99.90
20398;DHT22;10358;49.590;11.030;2023-08-12T14:02:36;26.30;99.90
20398;DHT22;10358;49.590;11.030;2023-08-12T14:05:02;23.80;99.90
20398;DHT22;10358;49.590;11.030;2023-08-12T14:07:28;22.10;99.90
20398;DHT22;10358;49.590;11.030;2023-08-12T14:09:54;20.80;99.90
20398;DHT22;10358;49.590;11.030;2023-08-12T14:12:19;19.90;99.90
20398;DHT22;10358;49.590;11.030;2023-08-12T14:14:45;19.50;99.90
20398;DHT22;10358;49.590;11.030;2023-08-12T14:17:11;19.40;99.90
20398;DHT22;10358;49.590;11.030;2023-08-12T14:19:40;19.20;99.90
20398;DHT22;10358;49.590;11.030;2023-08-12T14:22:07;19.20;99.90
20398;DHT22;10358;49.590;11.030;2023-08-12T14:24:32;19.20;99.90
20398;DHT22;10358;49.590;11.030;2023-08-12T14:26:58;19.10;99.90
20398;DHT22;10358;49.590;11.030;2023-08-12T14:29:23;19.10;99.90
20398;DHT22;10358;49.590;11.030;2023-08-12T14:31:49;19.00;99.90
20398;DHT22;10358;49.590;11.030;2023-08-12T14:34:14;19.00;99.90
20398;DHT22;10358;49.590;11.030;2023-08-12T14:36:40;18.90;99.90
20398;DHT22;10358;49.590;11.030;2023-08-12T14:39:05;18.90;99.90
20398;DHT22;10358;49.590;11.030;2023-08-12T14:41:32;19.00;99.90
20398;DHT22;10358;49.590;11.030;2023-08-12T14:43:58;19.00;99.90
20398;DHT22;10358;49.590;11.030;2023-08-12T14:46:24;19.10;99.90
20398;DHT22;10358;49.590;11.030;2023-08-12T14:48:49;19.10;99.90
20398;DHT22;10358;49.590;11.030;2023-08-12T14:51:15;19.20;99.90
20398;DHT22;10358;49.590;11.030;2023-08-12T14:53:41;19.20;99.90
20398;DHT22;10358;49.590;11.030;2023-08-12T14:56:06;19.30;99.90
20398;DHT22;10358;49.590;11.030;2023-08-12T14:58:32;19.30;99.90
20398;DHT22;10358;49.590;11.030;2023-08-12T15:00:58;19.40;99.90
20398;DHT22;10358;49.590;11.030;2023-08-12T15:03:26;19.40;99.90
20398;DHT22;10358;49.590;11.030;2023-08-12T15:05:59;19.40;99.90
20398;DHT22;10358;49.590;11.030;2023-08-12T15:08:25;19.70;99.90
20398;DHT22;10358;49.590;11.030;2023-08-12T15:10:50;19.70;99.90
20398;DHT22;10358;49.590;11.030;2023-08-12T15:13:16;19.60;99.90
20398;DHT22;10358;49.590;11.030;2023-08-12T15:15:45;19.50;99.90
20398;DHT22;10358;49.590;11.030;2023-08-12T15:18:11;19.50;99.90